createdAt,value
2022-11-05T00:01:20.309Z,9.06
2022-11-05T00:03:46.492Z,9.06
2022-11-05T00:06:12.671Z,9.11
2022-11-05T00:08:38.801Z,9.10
2022-11-05T00:11:04.907Z,9.10
2022-11-05T00:13:30.993Z,9.09
2022-11-05T00:15:57.092Z,9.13
2022-11-05T00:18:23.200Z,9.12
2022-11-05T00:20:49.286Z,9.06
2022-11-05T00:23:15.376Z,9.06
2022-11-05T00:25:41.478Z,9.14
2022-11-05T00:28:07.566Z,9.10
2022-11-05T00:30:33.855Z,9.14
2022-11-05T00:32:59.975Z,9.11
2022-11-05T00:35:26.073Z,9.14
2022-11-05T00:37:52.178Z,9.13
2022-11-05T00:40:18.324Z,9.14
2022-11-05T00:42:44.503Z,9.19
2022-11-05T00:45:10.597Z,9.11
2022-11-05T00:47:36.700Z,9.12
2022-11-05T00:50:02.831Z,9.08
2022-11-05T00:52:28.935Z,8.99
2022-11-05T00:54:55.043Z,8.96
2022-11-05T00:57:21.139Z,8.97
2022-11-05T00:59:47.236Z,8.93
2022-11-05T01:02:13.505Z,8.83
2022-11-05T01:04:39.681Z,8.85
2022-11-05T01:07:05.780Z,8.80
2022-11-05T01:09:32.177Z,8.69
2022-11-05T01:11:58.262Z,8.68
2022-11-05T01:14:24.363Z,8.63
2022-11-05T01:16:50.476Z,8.68
2022-11-05T01:19:16.560Z,8.71
2022-11-05T01:21:42.643Z,8.61
2022-11-05T01:24:08.770Z,8.49
2022-11-05T01:26:34.860Z,8.49
2022-11-05T01:29:01.001Z,8.55
2022-11-05T01:31:27.191Z,8.52
2022-11-05T01:33:53.276Z,8.43
2022-11-05T01:36:19.376Z,8.33
2022-11-05T01:38:45.484Z,8.37
2022-11-05T01:41:11.594Z,8.31
2022-11-05T01:43:37.680Z,8.41
2022-11-05T01:46:03.830Z,8.35
2022-11-05T01:48:29.923Z,8.32
2022-11-05T01:50:56.024Z,8.29
2022-11-05T01:53:22.143Z,8.33
2022-11-05T01:55:48.239Z,8.24
2022-11-05T01:58:14.323Z,8.25
2022-11-05T02:00:40.461Z,8.23
2022-11-05T02:03:06.613Z,8.19
2022-11-05T02:05:32.740Z,8.20
2022-11-05T02:07:58.858Z,8.20
2022-11-05T02:10:24.947Z,8.00
2022-11-05T02:12:51.033Z,8.10
2022-11-05T02:15:17.150Z,8.14
2022-11-05T02:17:43.251Z,8.20
2022-11-05T02:20:09.344Z,8.08
2022-11-05T02:22:35.464Z,8.04
2022-11-05T02:25:01.571Z,7.98
2022-11-05T02:27:27.656Z,7.97
2022-11-05T02:29:53.772Z,7.90
2022-11-05T02:32:19.864Z,7.82
2022-11-05T02:34:45.977Z,7.91
2022-11-05T02:37:12.098Z,8.04
2022-11-05T02:39:38.200Z,8.10
2022-11-05T02:42:05.300Z,8.04
2022-11-05T02:44:31.559Z,8.10
2022-11-05T02:46:57.642Z,8.00
2022-11-05T02:49:23.720Z,8.10
2022-11-05T02:51:49.873Z,8.10
2022-11-05T02:54:15.972Z,8.12
2022-11-05T02:56:42.056Z,8.18
2022-11-05T02:59:08.226Z,8.25
2022-11-05T03:01:34.422Z,8.25
2022-11-05T03:04:00.580Z,8.33
2022-11-05T03:06:26.695Z,8.23
2022-11-05T03:08:52.792Z,8.25
2022-11-05T03:11:18.875Z,8.36
2022-11-05T03:13:44.971Z,8.40
2022-11-05T03:16:11.095Z,8.41
2022-11-05T03:18:37.199Z,8.37
2022-11-05T03:21:03.361Z,8.42
2022-11-05T03:23:29.468Z,8.25
2022-11-05T03:25:55.567Z,8.27
2022-11-05T03:28:21.668Z,8.20
2022-11-05T03:30:47.766Z,8.17
2022-11-05T03:33:14.046Z,8.21
2022-11-05T03:35:40.250Z,8.28
2022-11-05T03:38:06.342Z,8.27
2022-11-05T03:40:32.488Z,8.23
2022-11-05T03:42:58.620Z,8.20
2022-11-05T03:45:24.724Z,8.21
2022-11-05T03:47:50.837Z,8.24
2022-11-05T03:50:16.983Z,8.16
2022-11-05T03:52:43.077Z,8.17
2022-11-05T03:55:09.164Z,8.11
2022-11-05T03:57:35.260Z,8.09
2022-11-05T04:00:01.357Z,8.18
2022-11-05T04:02:27.619Z,8.21
2022-11-05T04:04:53.791Z,8.19
2022-11-05T04:07:19.937Z,8.16
2022-11-05T04:09:46.023Z,8.15
2022-11-05T04:12:12.143Z,8.13
2022-11-05T04:14:38.219Z,8.12
2022-11-05T04:17:04.307Z,8.13
2022-11-05T04:19:30.419Z,8.10
2022-11-05T04:21:56.523Z,8.15
2022-11-05T04:24:22.610Z,8.08
2022-11-05T04:26:48.716Z,8.00
2022-11-05T04:29:14.809Z,7.94
2022-11-05T04:31:40.903Z,7.92
2022-11-05T04:34:07.015Z,7.94
2022-11-05T04:36:33.101Z,7.92
2022-11-05T04:38:59.184Z,7.82
2022-11-05T04:41:25.316Z,7.88
2022-11-05T04:43:51.413Z,7.87
2022-11-05T04:46:17.552Z,7.84
2022-11-05T04:48:43.661Z,7.76
2022-11-05T04:51:09.753Z,7.76
2022-11-05T04:53:35.841Z,7.74
2022-11-05T04:56:02.001Z,7.72
2022-11-05T04:58:28.660Z,7.71
2022-11-05T05:00:54.794Z,7.71
2022-11-05T05:03:20.948Z,7.74
2022-11-05T05:05:47.046Z,7.72
2022-11-05T05:08:13.142Z,7.68
2022-11-05T05:10:39.258Z,7.68
2022-11-05T05:13:05.360Z,7.67
2022-11-05T05:15:31.463Z,7.66
2022-11-05T05:17:57.571Z,7.65
2022-11-05T05:20:23.668Z,7.63
2022-11-05T05:22:49.762Z,7.64
2022-11-05T05:25:16.077Z,7.46
2022-11-05T05:27:42.176Z,7.45
2022-11-05T05:30:08.274Z,7.50
2022-11-05T05:32:34.384Z,7.47
2022-11-05T05:35:00.482Z,7.41
2022-11-05T05:37:26.595Z,7.42
2022-11-05T05:39:52.718Z,7.34
2022-11-05T05:42:18.808Z,7.30
2022-11-05T05:44:44.901Z,7.34
2022-11-05T05:47:11.017Z,7.23
2022-11-05T05:49:37.124Z,7.29
2022-11-05T05:52:03.211Z,7.23
2022-11-05T05:54:33.454Z,7.19
2022-11-05T05:57:00.341Z,7.13
2022-11-05T05:59:26.432Z,7.03
2022-11-05T06:01:52.649Z,7.06
2022-11-05T06:04:18.806Z,7.09
2022-11-05T06:06:44.910Z,7.10
2022-11-05T06:09:11.020Z,7.07
2022-11-05T06:11:37.113Z,7.04
2022-11-05T06:14:03.192Z,7.02
2022-11-05T06:16:29.321Z,7.02
2022-11-05T06:18:55.488Z,6.98
2022-11-05T06:21:21.577Z,7.07
2022-11-05T06:23:47.673Z,7.02
2022-11-05T06:26:13.776Z,7.04
2022-11-05T06:28:39.880Z,7.01
2022-11-05T06:31:06.477Z,7.04
2022-11-05T06:33:32.559Z,7.00
2022-11-05T06:35:58.645Z,6.96
2022-11-05T06:38:24.748Z,6.83
2022-11-05T06:40:50.853Z,6.95
2022-11-05T06:43:16.954Z,6.95
2022-11-05T06:45:43.080Z,6.90
2022-11-05T06:48:09.163Z,6.88
2022-11-05T06:50:35.254Z,6.89
2022-11-05T06:53:01.472Z,6.93
2022-11-05T06:55:27.564Z,6.89
2022-11-05T06:57:56.625Z,6.92
2022-11-05T07:00:22.810Z,6.97
2022-11-05T07:02:48.931Z,7.00
2022-11-05T07:05:15.026Z,6.96
2022-11-05T07:07:41.145Z,6.97
2022-11-05T07:10:07.232Z,6.95
2022-11-05T07:12:33.319Z,6.99
2022-11-05T07:15:08.759Z,7.06
2022-11-05T07:17:37.557Z,7.03
2022-11-05T07:20:03.668Z,7.01
2022-11-05T07:22:30.186Z,7.06
2022-11-05T07:24:56.314Z,7.01
2022-11-05T07:27:22.440Z,6.93
2022-11-05T07:29:49.812Z,7.03
2022-11-05T07:32:15.926Z,7.09
2022-11-05T07:34:42.077Z,6.98
2022-11-05T07:37:08.780Z,7.07
2022-11-05T07:39:34.913Z,7.10
2022-11-05T07:42:08.809Z,7.05
2022-11-05T07:44:34.944Z,7.10
2022-11-05T07:47:01.032Z,7.06
2022-11-05T07:49:27.153Z,7.06
2022-11-05T07:51:53.432Z,7.03
2022-11-05T07:54:19.537Z,7.09
2022-11-05T07:56:45.683Z,7.15
2022-11-05T07:59:11.818Z,7.12
2022-11-05T08:01:38.150Z,7.19
2022-11-05T08:04:07.274Z,7.18
2022-11-05T08:06:33.368Z,7.24
2022-11-05T08:08:59.476Z,7.27
2022-11-05T08:11:25.899Z,7.27
2022-11-05T08:13:52.007Z,7.27
2022-11-05T08:16:18.097Z,7.23
2022-11-05T08:18:44.204Z,7.32
2022-11-05T08:21:10.286Z,7.38
2022-11-05T08:23:36.380Z,7.39
2022-11-05T08:26:02.503Z,7.45
2022-11-05T08:28:30.791Z,7.44
2022-11-05T08:30:56.909Z,7.43
2022-11-05T08:33:23.007Z,7.49
2022-11-05T08:35:49.091Z,7.47
2022-11-05T08:38:15.184Z,7.63
2022-11-05T08:40:41.341Z,7.73
2022-11-05T08:43:07.451Z,7.60
2022-11-05T08:45:33.554Z,7.75
2022-11-05T08:47:59.674Z,7.71
2022-11-05T08:50:25.891Z,7.80
2022-11-05T08:52:52.032Z,7.79
2022-11-05T08:55:18.174Z,7.84
2022-11-05T08:57:44.280Z,7.90
2022-11-05T09:00:10.380Z,8.02
2022-11-05T09:02:36.597Z,8.00
2022-11-05T09:05:02.752Z,8.07
2022-11-05T09:07:28.867Z,8.11
2022-11-05T09:09:55.055Z,8.17
2022-11-05T09:12:21.165Z,8.12
2022-11-05T09:14:47.308Z,8.10
2022-11-05T09:17:13.463Z,8.17
2022-11-05T09:19:40.251Z,8.35
2022-11-05T09:22:06.522Z,8.34
2022-11-05T09:24:32.874Z,8.32
2022-11-05T09:26:58.967Z,8.40
2022-11-05T09:29:25.091Z,8.44
2022-11-05T09:31:51.291Z,8.55
2022-11-05T09:34:18.981Z,8.48
2022-11-05T09:36:45.264Z,8.54
2022-11-05T09:39:11.732Z,8.58
2022-11-05T09:41:38.006Z,8.57
2022-11-05T09:44:04.115Z,8.72
2022-11-05T09:46:30.263Z,8.79
2022-11-05T09:48:59.645Z,8.84
2022-11-05T09:51:25.993Z,8.91
2022-11-05T09:53:53.358Z,8.99
2022-11-05T09:56:19.517Z,9.01
2022-11-05T09:58:45.741Z,9.22
2022-11-05T10:01:11.970Z,9.26
2022-11-05T10:03:38.161Z,9.22
2022-11-05T10:06:04.254Z,9.28
2022-11-05T10:08:30.366Z,9.36
2022-11-05T10:10:56.469Z,9.34
2022-11-05T10:13:22.577Z,9.43
2022-11-05T10:15:48.753Z,9.64
2022-11-05T10:18:14.845Z,9.51
2022-11-05T10:20:40.939Z,9.55
2022-11-05T10:23:07.059Z,9.51
2022-11-05T10:25:33.144Z,9.51
2022-11-05T10:27:59.234Z,9.64
2022-11-05T10:30:25.351Z,9.55
2022-11-05T10:32:51.445Z,9.68
2022-11-05T10:35:17.540Z,9.71
2022-11-05T10:37:43.944Z,9.82
2022-11-05T10:40:10.067Z,9.90
2022-11-05T10:42:36.173Z,9.93
2022-11-05T10:45:02.293Z,9.94
2022-11-05T10:47:28.391Z,10.01
2022-11-05T10:49:54.494Z,10.15
2022-11-05T10:52:20.602Z,10.29
2022-11-05T10:54:46.698Z,10.21
2022-11-05T10:57:14.620Z,10.27
2022-11-05T10:59:40.725Z,10.34
2022-11-05T11:02:06.928Z,10.52
2022-11-05T11:04:37.690Z,10.58
2022-11-05T11:07:04.280Z,10.49
2022-11-05T11:09:30.385Z,10.41
2022-11-05T11:11:56.487Z,10.49
2022-11-05T11:14:22.614Z,10.37
2022-11-05T11:16:48.706Z,10.28
2022-11-05T11:19:14.787Z,10.53
2022-11-05T11:21:40.933Z,10.66
2022-11-05T11:24:07.055Z,10.69
2022-11-05T11:26:33.155Z,10.48
2022-11-05T11:28:59.279Z,10.70
2022-11-05T11:31:25.384Z,10.63
2022-11-05T11:33:51.471Z,10.37
2022-11-05T11:36:17.571Z,10.32
2022-11-05T11:38:43.674Z,10.34
2022-11-05T11:41:09.764Z,10.29
2022-11-05T11:43:35.882Z,10.44
2022-11-05T11:46:06.110Z,10.25
2022-11-05T11:48:33.960Z,10.39
2022-11-05T11:51:00.064Z,10.12
2022-11-05T11:53:26.147Z,10.34
2022-11-05T11:55:52.260Z,10.31
2022-11-05T11:58:18.374Z,10.44
2022-11-05T12:00:44.469Z,10.48
2022-11-05T12:03:10.634Z,10.56
2022-11-05T12:05:36.810Z,10.63
2022-11-05T12:08:02.915Z,10.67
2022-11-05T12:10:29.014Z,10.62
2022-11-05T12:12:55.132Z,10.77
2022-11-05T12:15:21.210Z,10.79
2022-11-05T12:17:47.292Z,10.69
2022-11-05T12:20:13.462Z,10.59
2022-11-05T12:22:39.628Z,10.87
2022-11-05T12:25:05.736Z,10.71
2022-11-05T12:27:31.849Z,10.73
2022-11-05T12:29:57.937Z,10.77
2022-11-05T12:32:24.088Z,10.65
2022-11-05T12:34:50.320Z,10.77
2022-11-05T12:37:16.413Z,10.72
2022-11-05T12:39:42.512Z,10.79
2022-11-05T12:42:08.905Z,10.77
2022-11-05T12:44:35.018Z,10.80
2022-11-05T12:47:01.116Z,10.69
2022-11-05T12:49:27.224Z,10.81
2022-11-05T12:51:53.311Z,10.85
2022-11-05T12:54:19.412Z,10.93
2022-11-05T12:56:45.507Z,10.78
2022-11-05T12:59:11.594Z,10.85
2022-11-05T13:01:37.771Z,10.92
2022-11-05T13:04:03.957Z,10.88
2022-11-05T13:06:30.056Z,10.88
2022-11-05T13:08:56.150Z,10.86
2022-11-05T13:11:22.272Z,10.95
2022-11-05T13:13:48.361Z,10.90
2022-11-05T13:16:14.487Z,10.84
2022-11-05T13:18:40.585Z,10.91
2022-11-05T13:21:06.668Z,10.92
2022-11-05T13:23:32.750Z,10.86
2022-11-05T13:25:58.946Z,10.88
2022-11-05T13:28:25.040Z,10.95
2022-11-05T13:30:51.123Z,10.88
2022-11-05T13:33:17.256Z,10.87
2022-11-05T13:35:43.339Z,10.81
2022-11-05T13:38:09.430Z,10.92
2022-11-05T13:40:35.543Z,11.00
2022-11-05T13:43:01.658Z,11.04
2022-11-05T13:45:27.754Z,11.05
2022-11-05T13:47:53.855Z,10.80
2022-11-05T13:50:19.957Z,10.87
2022-11-05T13:52:46.050Z,10.85
2022-11-05T13:55:12.382Z,10.65
2022-11-05T13:57:38.525Z,10.71
2022-11-05T14:00:04.615Z,10.70
2022-11-05T14:02:30.861Z,10.61
2022-11-05T14:05:01.063Z,10.56
2022-11-05T14:07:27.771Z,10.48
2022-11-05T14:09:53.884Z,10.53
2022-11-05T14:12:19.983Z,10.68
2022-11-05T14:14:46.067Z,10.70
2022-11-05T14:17:12.178Z,10.78
2022-11-05T14:19:38.279Z,10.82
2022-11-05T14:22:04.377Z,10.83
2022-11-05T14:24:30.564Z,10.91
2022-11-05T14:26:56.656Z,10.83
2022-11-05T14:29:22.751Z,10.69
2022-11-05T14:32:07.905Z,10.57
2022-11-05T14:34:34.703Z,10.59
2022-11-05T14:37:00.861Z,10.41
2022-11-05T14:39:26.962Z,10.19
2022-11-05T14:41:53.056Z,10.27
2022-11-05T14:44:19.169Z,10.23
2022-11-05T14:46:45.268Z,10.22
2022-11-05T14:49:11.357Z,10.20
2022-11-05T14:51:37.828Z,10.16
2022-11-05T14:54:03.973Z,10.07
2022-11-05T14:56:30.076Z,10.07
2022-11-05T14:58:56.193Z,10.07
2022-11-05T15:01:22.401Z,10.14
2022-11-05T15:03:48.723Z,10.15
2022-11-05T15:06:14.891Z,10.09
2022-11-05T15:08:40.999Z,10.00
2022-11-05T15:11:07.096Z,10.10
2022-11-05T15:13:33.210Z,10.03
2022-11-05T15:15:59.336Z,10.10
2022-11-05T15:18:25.434Z,10.01
2022-11-05T15:20:51.549Z,9.96
2022-11-05T15:23:17.645Z,9.93
2022-11-05T15:25:45.830Z,9.84
2022-11-05T15:28:15.088Z,9.92
2022-11-05T15:30:41.175Z,9.78
2022-11-05T15:33:07.281Z,9.84
2022-11-05T15:35:33.395Z,9.88
2022-11-05T15:38:02.494Z,9.84
2022-11-05T15:40:28.864Z,9.82
2022-11-05T15:42:55.481Z,9.80
2022-11-05T15:45:21.588Z,9.79
2022-11-05T15:47:47.679Z,9.73
2022-11-05T15:50:15.034Z,9.65
2022-11-05T15:52:41.428Z,9.60
2022-11-05T15:55:07.513Z,9.58
2022-11-05T15:57:34.549Z,9.53
2022-11-05T16:00:02.994Z,9.45
2022-11-05T16:02:29.353Z,9.46
2022-11-05T16:04:55.575Z,9.44
2022-11-05T16:07:21.665Z,9.35
2022-11-05T16:09:47.759Z,9.37
2022-11-05T16:12:13.904Z,9.45
2022-11-05T16:14:39.991Z,9.28
2022-11-05T16:17:06.086Z,9.33
2022-11-05T16:19:37.014Z,9.29
2022-11-05T16:22:05.856Z,9.31
2022-11-05T16:24:31.943Z,9.25
2022-11-05T16:27:02.716Z,9.29
2022-11-05T16:29:29.273Z,9.22
2022-11-05T16:31:55.368Z,9.21
2022-11-05T16:34:21.481Z,9.11
2022-11-05T16:36:47.577Z,9.21
2022-11-05T16:39:13.673Z,9.18
2022-11-05T16:41:40.088Z,9.14
2022-11-05T16:44:06.183Z,9.10
2022-11-05T16:46:32.328Z,9.16
2022-11-05T16:48:58.443Z,9.12
2022-11-05T16:51:27.341Z,9.08
2022-11-05T16:53:53.713Z,9.02
2022-11-05T16:56:19.863Z,9.09
2022-11-05T16:58:45.956Z,9.06
2022-11-05T17:01:12.111Z,9.13
2022-11-05T17:03:38.257Z,9.03
2022-11-05T17:06:04.402Z,9.04
2022-11-05T17:08:30.490Z,8.99
2022-11-05T17:10:56.606Z,8.98
2022-11-05T17:13:22.710Z,8.95
2022-11-05T17:15:48.820Z,9.01
2022-11-05T17:18:18.611Z,8.90
2022-11-05T17:20:45.355Z,8.88
2022-11-05T17:23:11.893Z,8.92
2022-11-05T17:25:38.318Z,8.89
2022-11-05T17:28:04.419Z,8.90
2022-11-05T17:30:30.527Z,8.87
2022-11-05T17:32:56.688Z,8.83
2022-11-05T17:35:22.828Z,8.88
2022-11-05T17:37:48.911Z,8.88
2022-11-05T17:40:15.011Z,8.89
2022-11-05T17:42:41.104Z,8.81
2022-11-05T17:45:07.194Z,8.78
2022-11-05T17:47:33.311Z,8.81
2022-11-05T17:49:59.418Z,8.85
2022-11-05T17:52:25.529Z,8.84
2022-11-05T17:54:52.140Z,8.81
2022-11-05T17:57:18.236Z,8.76
2022-11-05T17:59:44.339Z,8.79
2022-11-05T18:02:10.585Z,8.80
2022-11-05T18:04:36.755Z,8.86
2022-11-05T18:07:02.852Z,8.80
2022-11-05T18:09:28.973Z,8.76
2022-11-05T18:11:55.069Z,8.73
2022-11-05T18:14:23.999Z,8.72
2022-11-05T18:16:50.405Z,8.76
2022-11-05T18:19:16.502Z,8.75
2022-11-05T18:21:42.580Z,8.76
2022-11-05T18:24:08.683Z,8.70
2022-11-05T18:26:34.772Z,8.66
2022-11-05T18:29:00.880Z,8.67
2022-11-05T18:31:26.995Z,8.72
2022-11-05T18:33:53.083Z,8.66
2022-11-05T18:36:19.179Z,8.65
2022-11-05T18:38:45.282Z,8.60
2022-11-05T18:41:11.363Z,8.62
2022-11-05T18:43:37.445Z,8.65
2022-11-05T18:46:04.075Z,8.57
2022-11-05T18:48:30.176Z,8.60
2022-11-05T18:51:00.733Z,8.55
2022-11-05T18:53:28.027Z,8.51
2022-11-05T18:55:54.113Z,8.51
2022-11-05T18:58:20.195Z,8.59
2022-11-05T19:00:46.295Z,8.55
2022-11-05T19:03:12.389Z,8.60
2022-11-05T19:05:38.476Z,8.51
2022-11-05T19:08:04.600Z,8.49
2022-11-05T19:10:30.689Z,8.48
2022-11-05T19:12:56.792Z,8.40
2022-11-05T19:15:22.904Z,8.44
2022-11-05T19:17:49.016Z,8.53
2022-11-05T19:20:15.114Z,8.53
2022-11-05T19:22:41.222Z,8.57
2022-11-05T19:25:07.313Z,8.52
2022-11-05T19:27:33.418Z,8.40
2022-11-05T19:29:59.515Z,8.47
2022-11-05T19:32:25.609Z,8.43
2022-11-05T19:34:51.705Z,8.49
2022-11-05T19:37:17.833Z,8.41
2022-11-05T19:39:43.952Z,8.49
2022-11-05T19:42:10.033Z,8.42
2022-11-05T19:44:36.161Z,8.38
2022-11-05T19:47:02.257Z,8.43
2022-11-05T19:49:28.353Z,8.33
2022-11-05T19:51:54.568Z,8.46
2022-11-05T19:54:20.656Z,8.35
2022-11-05T19:56:46.747Z,8.39
2022-11-05T19:59:12.905Z,8.49
2022-11-05T20:01:39.118Z,8.40
2022-11-05T20:04:05.331Z,8.36
2022-11-05T20:06:31.473Z,8.41
2022-11-05T20:09:20.657Z,8.40
2022-11-05T20:11:43.694Z,8.41
2022-11-05T20:14:09.796Z,8.39
2022-11-05T20:16:35.884Z,8.38
2022-11-05T20:19:02.002Z,8.43
2022-11-05T20:21:28.095Z,8.32
2022-11-05T20:23:54.207Z,8.39
2022-11-05T20:26:20.303Z,8.38
2022-11-05T20:28:46.416Z,8.36
2022-11-05T20:31:12.514Z,8.33
2022-11-05T20:33:38.630Z,8.33
2022-11-05T20:36:04.717Z,8.34
2022-11-05T20:38:30.809Z,8.41
2022-11-05T20:40:56.922Z,8.41
2022-11-05T20:43:27.590Z,8.36
2022-11-05T20:45:56.336Z,8.30
2022-11-05T20:48:22.550Z,8.25
2022-11-05T20:50:48.631Z,8.20
2022-11-05T20:53:14.732Z,8.29
2022-11-05T20:55:40.851Z,8.31
2022-11-05T20:58:06.961Z,8.33
2022-11-05T21:00:33.059Z,8.27
2022-11-05T21:02:59.517Z,8.29
2022-11-05T21:05:26.605Z,8.34
2022-11-05T21:07:55.014Z,8.38
2022-11-05T21:10:21.123Z,8.36
2022-11-05T21:12:47.242Z,8.33
2022-11-05T21:15:13.328Z,8.26
2022-11-05T21:17:39.437Z,8.27
2022-11-05T21:20:05.582Z,8.30
2022-11-05T21:22:31.687Z,8.35
2022-11-05T21:24:57.799Z,8.30
2022-11-05T21:27:23.915Z,8.19
2022-11-05T21:29:50.014Z,8.19
2022-11-05T21:32:16.137Z,8.23
2022-11-05T21:34:42.235Z,8.21
2022-11-05T21:37:08.362Z,8.21
2022-11-05T21:39:34.470Z,8.19
2022-11-05T21:42:00.561Z,8.19
2022-11-05T21:44:26.643Z,8.21
2022-11-05T21:46:52.754Z,8.23
2022-11-05T21:49:18.835Z,8.19
2022-11-05T21:51:44.928Z,8.21
2022-11-05T21:54:11.049Z,8.20
2022-11-05T21:56:37.138Z,8.21
2022-11-05T21:59:03.247Z,8.24
2022-11-05T22:01:29.764Z,8.29
2022-11-05T22:04:00.386Z,8.15
2022-11-05T22:06:28.852Z,8.13
2022-11-05T22:08:54.964Z,8.15
2022-11-05T22:11:21.065Z,8.13
2022-11-05T22:13:47.152Z,8.03
2022-11-05T22:16:13.266Z,8.07
2022-11-05T22:18:39.366Z,8.06
2022-11-05T22:21:05.451Z,8.06
2022-11-05T22:23:31.558Z,7.98
2022-11-05T22:25:57.664Z,8.02
2022-11-05T22:28:23.753Z,8.01
2022-11-05T22:30:49.875Z,8.00
2022-11-05T22:33:15.969Z,7.99
2022-11-05T22:35:42.049Z,7.98
2022-11-05T22:38:08.176Z,8.02
2022-11-05T22:40:34.272Z,7.92
2022-11-05T22:43:00.366Z,7.94
2022-11-05T22:45:26.473Z,7.89
2022-11-05T22:47:52.564Z,7.94
2022-11-05T22:50:18.650Z,7.88
2022-11-05T22:52:44.751Z,7.81
2022-11-05T22:55:10.836Z,7.82
2022-11-05T22:57:36.946Z,7.89
2022-11-05T23:00:03.539Z,7.86
2022-11-05T23:02:29.745Z,7.90
2022-11-05T23:04:55.900Z,7.86
2022-11-05T23:07:27.026Z,7.79
2022-11-05T23:09:53.839Z,7.82
2022-11-05T23:12:19.936Z,7.80
2022-11-05T23:14:46.039Z,7.83
2022-11-05T23:17:12.132Z,7.77
2022-11-05T23:19:38.233Z,7.73
2022-11-05T23:22:04.348Z,7.74
2022-11-05T23:24:30.445Z,7.72
2022-11-05T23:26:56.576Z,7.71
2022-11-05T23:29:22.704Z,7.70
2022-11-05T23:31:48.788Z,7.68
2022-11-05T23:34:14.870Z,7.66
2022-11-05T23:36:40.997Z,7.64
2022-11-05T23:39:07.088Z,7.62
2022-11-05T23:41:33.188Z,7.61
2022-11-05T23:43:59.308Z,7.62
2022-11-05T23:46:25.404Z,7.63
2022-11-05T23:48:51.491Z,7.57
2022-11-05T23:51:17.599Z,7.54
2022-11-05T23:53:43.697Z,7.50
2022-11-05T23:56:09.799Z,7.48
2022-11-05T23:58:35.910Z,7.39
